»·PEaware :: N228Q M94-S36

N228Q :: M94-S36

FLIGHT INFORMATION

Flight Status: Arrived
Operator: Privately registered:
United States
More flights under this callsign
Pilot: Chuck O. (4337)
Aircraft: BEECH AIRCRAFT BONANZA
(BE35)
More flights by this aircraft type
Origin: M94 Desert Aire
United States
Destination: S36 Norman Grier Field
United States
More flights between these airports :: More routes between these airports
Route: FEBUS V187 RADDY V4 BLAKO
File this flight plan on PilotEdge
Remarks: AFTER BLAKO REQ VECTOR DESCENT TO VFR (ABC WA LEG 13 TO S36 GRIER)
Altitude:
(Current/Filed)
10,000ft
Speed:
(Current/Filed)
150kts
Departed: 05-Jun-20 08:52 AM
Arrived: 05-Jun-20 09:40 AM
Distance/Time
Traveled:
98nm/0:47
Distance/Time
To Go:
Arrived

Flight Plot

Page will automatically refresh every two minutes.

Flight plan parsing failed; only flown route is shown


Map Options




Map Legend


Flown Route
Filed Route
Departure Airport
Arrival Airport
Navaid (VOR, NDB)
Fix

Horizontal Profiles

Position Reports

Time Latitude Longitude Heading Altitude Ground
Speed
05-Jun-20 08:40 46.686229 -119.919393 293 573ft 0kts
05-Jun-20 08:41 46.686230 -119.919396 293 573ft 0kts
05-Jun-20 08:42 46.686490 -119.919586 17 573ft 0kts
05-Jun-20 08:43 46.686493 -119.919585 17 573ft 0kts
05-Jun-20 08:44 46.686495 -119.919584 17 573ft 0kts
05-Jun-20 08:45 46.686497 -119.919583 17 573ft 0kts
05-Jun-20 08:46 46.686499 -119.919582 17 573ft 0kts
05-Jun-20 08:47 46.686531 -119.919556 41 573ft 2kts
05-Jun-20 08:48 46.685218 -119.915376 113 573ft 18kts
05-Jun-20 08:49 46.684608 -119.913482 77 573ft 0kts
05-Jun-20 08:50 46.684927 -119.913422 20 573ft 0kts
05-Jun-20 08:51 46.689116 -119.925985 292 683ft 94kts
05-Jun-20 08:52 46.711909 -119.938402 0 1647ft 128kts
05-Jun-20 08:53 46.748598 -119.925125 13 2550ft 130kts
05-Jun-20 08:55 46.782903 -119.912418 13 3605ft 125kts
05-Jun-20 08:56 46.816388 -119.900395 14 4600ft 123kts
05-Jun-20 08:57 46.849827 -119.888415 16 5534ft 123kts
05-Jun-20 08:58 46.883017 -119.876513 16 6424ft 123kts
05-Jun-20 08:59 46.906616 -119.902384 287 7325ft 126kts
05-Jun-20 09:00 46.917191 -119.952153 286 8114ft 128kts
05-Jun-20 09:01 46.928000 -120.002694 285 8820ft 132kts
05-Jun-20 09:02 46.938970 -120.054057 283 9531ft 131kts
05-Jun-20 09:03 46.949976 -120.105819 282 10004ft 144kts
05-Jun-20 09:04 46.962825 -120.166175 283 10020ft 161kts
05-Jun-20 09:05 46.976481 -120.230601 283 10027ft 168kts
05-Jun-20 09:06 46.990379 -120.296423 283 10023ft 170kts
05-Jun-20 09:07 47.004269 -120.362443 283 10033ft 169kts
05-Jun-20 09:08 47.018146 -120.428629 283 10033ft 170kts
05-Jun-20 09:09 47.026145 -120.495072 270 10029ft 162kts
05-Jun-20 09:10 47.029249 -120.560880 270 10030ft 161kts
05-Jun-20 09:11 47.032312 -120.626619 269 10028ft 161kts
05-Jun-20 09:11 47.034834 -120.681332 269 10040ft 161kts
05-Jun-20 09:13 47.038323 -120.758065 269 10034ft 161kts
05-Jun-20 09:13 47.040775 -120.812585 269 10041ft 160kts
05-Jun-20 09:14 47.043675 -120.877940 269 10043ft 160kts
05-Jun-20 09:16 47.047025 -120.954603 269 9985ft 163kts
05-Jun-20 09:16 47.049728 -121.010064 269 9975ft 162kts
05-Jun-20 09:17 47.053092 -121.075736 269 9979ft 161kts
05-Jun-20 09:18 47.056391 -121.141352 269 9970ft 161kts
05-Jun-20 09:19 47.059645 -121.206888 269 9988ft 161kts
05-Jun-20 09:20 47.062868 -121.272632 269 9981ft 161kts
05-Jun-20 09:21 47.066060 -121.338439 269 9977ft 161kts
05-Jun-20 09:22 47.069204 -121.404063 269 9993ft 161kts
05-Jun-20 09:23 47.072308 -121.469741 269 9984ft 161kts
05-Jun-20 09:24 47.082210 -121.533609 299 9987ft 168kts
05-Jun-20 09:25 47.108607 -121.590376 300 9991ft 168kts
05-Jun-20 09:26 47.134873 -121.647427 299 9998ft 168kts
05-Jun-20 09:27 47.161029 -121.704440 299 9990ft 169kts
05-Jun-20 09:28 47.184645 -121.756019 299 9997ft 169kts
05-Jun-20 09:29 47.211779 -121.815437 300 9425ft 188kts
05-Jun-20 09:30 47.241861 -121.881377 301 8255ft 198kts
05-Jun-20 09:31 47.269285 -121.941660 302 7166ft 197kts
05-Jun-20 09:32 47.314308 -121.972023 0 6035ft 190kts
05-Jun-20 09:33 47.366810 -121.972321 1 5050ft 180kts
05-Jun-20 09:34 47.412262 -121.971844 1 4996ft 156kts
05-Jun-20 09:35 47.423655 -122.011069 230 4689ft 160kts
05-Jun-20 09:36 47.403011 -122.073347 247 3544ft 169kts
05-Jun-20 09:37 47.375331 -122.111471 147 1887ft 120kts
05-Jun-20 09:38 47.347992 -122.106128 172 654ft 88kts
05-Jun-20 09:39 47.335399 -122.103293 148 461ft 2kts
05-Jun-20 09:40 47.337256 -122.103375 351 461ft 12kts
05-Jun-20 09:41 47.339948 -122.103973 348 461ft 4kts
05-Jun-20 09:42 47.340696 -122.103862 77 461ft 0kts
05-Jun-20 09:43 47.340696 -122.103861 77 461ft 0kts
05-Jun-20 09:44 47.340696 -122.103861 77 461ft 0kts

Navigation Log

Ident Type
Flight plan parsing failed, navigation log unavailable